SPTU

Padre Aldamiz International Airport

Puerto Maldonado, Peru
SPTU 251710Z 2518/2618 13006KT 9999 SCT012 BKN100 TX32/2520Z TN22/2611Z TEMPO 2521/2600 33010KT BKN010 FEW012TCU BECMG 2600/2602 00000KT FEW020
Issued Valid From Valid To
Apr-25 @ 17:10 UTC
(11 hours ago)
Apr-25 @ 18:00 UTC
(10 hours ago)
Apr-26 @ 18:00 UTC
(in 14 hours)
Expired Click to View Apr-25 @ 18:00 to Apr-26 @ 00:00
SPTU 251710Z 2518/2618 13006KT 9999 SCT012 BKN100 TX32/2520Z TN22/2611Z
Wind Visibility Clouds
130° at 6 knots 10,000+ meters
  • Scattered at 1,200' AGL
  • Broken at 10,000' AGL
Expired Click to View Apr-25 @ 21:00 to Apr-26 @ 00:00
TEMPO 2521/2600 33010KT BKN010 FEW012TCU
Wind Clouds
330° at 10 knots
  • Broken at 1,000' AGL
  • Few at 1,200' AGL
Becoming Apr-26 @ 00:00 to Apr-26 @ 18:00
BECMG 2600/2602 00000KT FEW020
Visibility Clouds
10,000+ meters
  • Few at 2,000' AGL
SPTU 251710Z 2518/2618 13006KT 9999 SCT012 BKN100 TX32/2520Z TN22/2611Z TEMPO 2521/2600 33010KT BKN010 FEW012TCU BECMG 2600/2602 00000KT FEW020
Issued Apr-25 @ 17:10 UTC
(11 hours ago)
Valid From Apr-25 @ 18:00 UTC
(10 hours ago)
Valid To Apr-26 @ 18:00 UTC
(in 14 hours)
Apr-25 @ 18:00 - Apr-26 @ 00:00
Wind Visibility
130° at 6 knots 10,000+ meters
Clouds
  • Scattered at 1,200' AGL
  • Broken at 10,000' AGL
Apr-25 @ 21:00 - Apr-26 @ 00:00
Wind
330° at 10 knots
Clouds
  • Broken at 1,000' AGL
  • Few at 1,200' AGL
Becoming Apr-26 @ 00:00 - Apr-26 @ 18:00
Clouds
  • Few at 2,000' AGL